sensor_id;sensor_type;location;lat;lon;timestamp;P1;durP1;ratioP1;P2;durP2;ratioP2
54545;SDS011;40444;45.184;9.850;2023-12-20T17:25:20;34.85;;;25.13;;
54545;SDS011;40444;45.184;9.850;2023-12-20T17:27:52;37.88;;;27.85;;
54545;SDS011;40444;45.184;9.850;2023-12-20T17:30:20;37.33;;;29.60;;
54545;SDS011;40444;45.184;9.850;2023-12-20T17:32:49;38.22;;;28.63;;
54545;SDS011;40444;45.184;9.850;2023-12-20T17:35:18;33.58;;;27.35;;
54545;SDS011;40444;45.184;9.850;2023-12-20T17:37:48;35.13;;;26.23;;
54545;SDS011;40444;45.184;9.850;2023-12-20T17:40:17;31.60;;;23.92;;
54545;SDS011;40444;45.184;9.850;2023-12-20T17:42:46;35.50;;;26.33;;
54545;SDS011;40444;45.184;9.850;2023-12-20T17:45:16;37.83;;;29.88;;
54545;SDS011;40444;45.184;9.850;2023-12-20T17:47:45;36.75;;;29.73;;
54545;SDS011;40444;45.184;9.850;2023-12-20T17:50:16;55.13;;;38.47;;
54545;SDS011;40444;45.184;9.850;2023-12-20T17:52:45;55.65;;;42.65;;
54545;SDS011;40444;45.184;9.850;2023-12-20T17:55:21;57.80;;;42.80;;
54545;SDS011;40444;45.184;9.850;2023-12-20T17:57:50;52.50;;;40.22;;
54545;SDS011;40444;45.184;9.850;2023-12-20T18:00:19;52.72;;;37.80;;
54545;SDS011;40444;45.184;9.850;2023-12-20T18:02:51;45.40;;;34.85;;
54545;SDS011;40444;45.184;9.850;2023-12-20T18:05:23;41.25;;;32.17;;
54545;SDS011;40444;45.184;9.850;2023-12-20T18:07:54;43.20;;;32.30;;
54545;SDS011;40444;45.184;9.850;2023-12-20T18:10:23;47.08;;;35.08;;
54545;SDS011;40444;45.184;9.850;2023-12-20T18:12:51;38.35;;;30.77;;
54545;SDS011;40444;45.184;9.850;2023-12-20T18:15:22;35.03;;;27.48;;
54545;SDS011;40444;45.184;9.850;2023-12-20T18:17:50;31.80;;;24.80;;
54545;SDS011;40444;45.184;9.850;2023-12-20T18:20:19;30.98;;;25.25;;
54545;SDS011;40444;45.184;9.850;2023-12-20T18:22:48;30.65;;;25.42;;
54545;SDS011;40444;45.184;9.850;2023-12-20T18:25:17;29.27;;;25.33;;
54545;SDS011;40444;45.184;9.850;2023-12-20T18:27:47;29.90;;;24.25;;
54545;SDS011;40444;45.184;9.850;2023-12-20T18:30:16;28.35;;;24.33;;
54545;SDS011;40444;45.184;9.850;2023-12-20T18:32:45;38.25;;;30.33;;
54545;SDS011;40444;45.184;9.850;2023-12-20T18:35:14;48.30;;;36.72;;
54545;SDS011;40444;45.184;9.850;2023-12-20T18:37:43;46.92;;;36.80;;
54545;SDS011;40444;45.184;9.850;2023-12-20T18:40:12;47.17;;;35.97;;
54545;SDS011;40444;45.184;9.850;2023-12-20T18:42:41;58.05;;;40.78;;
54545;SDS011;40444;45.184;9.850;2023-12-20T18:45:10;60.05;;;44.35;;
54545;SDS011;40444;45.184;9.850;2023-12-20T18:47:39;58.45;;;43.42;;
54545;SDS011;40444;45.184;9.850;2023-12-20T18:50:08;63.70;;;47.03;;
54545;SDS011;40444;45.184;9.850;2023-12-20T18:52:37;60.00;;;45.47;;
54545;SDS011;40444;45.184;9.850;2023-12-20T18:55:05;52.28;;;38.58;;
54545;SDS011;40444;45.184;9.850;2023-12-20T18:57:34;48.28;;;37.80;;
54545;SDS011;40444;45.184;9.850;2023-12-20T19:00:04;44.20;;;33.08;;
54545;SDS011;40444;45.184;9.850;2023-12-20T19:02:33;42.55;;;35.03;;
54545;SDS011;40444;45.184;9.850;2023-12-20T19:05:03;44.45;;;35.40;;
54545;SDS011;40444;45.184;9.850;2023-12-20T19:07:33;44.85;;;34.10;;
54545;SDS011;40444;45.184;9.850;2023-12-20T19:10:01;37.70;;;30.00;;
54545;SDS011;40444;45.184;9.850;2023-12-20T19:12:30;36.95;;;29.00;;
54545;SDS011;40444;45.184;9.850;2023-12-20T19:15:00;35.38;;;30.33;;
54545;SDS011;40444;45.184;9.850;2023-12-20T19:17:29;34.70;;;28.25;;
54545;SDS011;40444;45.184;9.850;2023-12-20T19:19:59;34.10;;;26.42;;
54545;SDS011;40444;45.184;9.850;2023-12-20T19:22:27;35.83;;;28.25;;
54545;SDS011;40444;45.184;9.850;2023-12-20T19:25:00;43.08;;;32.95;;
54545;SDS011;40444;45.184;9.850;2023-12-20T19:27:36;70.70;;;44.92;;
